Onaway, MI (49765)

10:30 PM EST on February 27, 2017 (GMT -0500)
Main Street | | Change Station

Elev 820 ft 45.36 °N, 84.23 °W | Updated 3 minutes ago

Mostly Cloudy
Mostly Cloudy
32.5 °F
Feels Like 32 °F
N
2.5
Wind Variable Wind from South
Gusts 4.3 mph

Today
High -- | Low -- °F
--% Chance of Precip.
Yesterday
High -- | Low -- °F
Precip. -- in
Pressure 30.15 in
Visibility 10.0 miles
Clouds Mostly Cloudy 6000 ft
Overcast 8000 ft
Windchill 32 °F
Dew Point 29 °F
Humidity 87%
Rainfall 0.15 in
Snow Depth Not available.
7:18 AM 6:21 PM
Waxing Crescent, 3% visible
METAR KPZQ 280315Z AUTO 19007KT 10SM BKN060 OVC080 02/M04 A3015 RMK AO2 T00151038
Pressure 30.15 in
Visibility 10.0 miles
Clouds Mostly Cloudy 6000 ft
Overcast 8000 ft
Windchill 32 °F
Dew Point 29 °F
Humidity 87%
Rainfall 0.15 in
Snow Depth Not available.
7:18 AM 6:21 PM
Waxing Crescent, 3% visible
METAR KPZQ 280315Z AUTO 19007KT 10SM BKN060 OVC080 02/M04 A3015 RMK AO2 T00151038

Get Your Daily Forecast Email!

Thanks for signing up!

Be on the lookout for a verification email in your inbox.

You'll start receiving the daily forecast at 8 AM.

×

10-Day Weather Forecast

Almanac

Astronomy

Feb. 27, 2017 Rise Set
Actual Time
Civil Twilight
Nautical Twilight
Astronomical Twilight
Moon
Length of Visible Light
Length of Day
Tomorrow will be .
, % of the Moon is Illuminated

Today's Extremes

State Highs State Lows

Community

WunderPhotos

Upload Photos

1,962,540 photos uploaded!

WunderBlog® & News

Nearby

Air Quality

  Air Quality AQ Index Pollutant
Not available.

Snow Depth

Station Depth Elevation

Earthquake Activity

City Distance Mag. Time & Date
Minimum magnitude displayed is 2.5.

Coastal Water Temperatures

Place Temperature

Stations

Nearby Weather Stations

Station Location Temp. Windchill Dew Point Humidity Wind Precip. Elev Updated Type
                   

Watches & Warnings

There are currently no watches in effect.